createdAt,value
2022-09-24T00:00:47.146Z,1001
2022-09-24T00:02:03.429Z,1001
2022-09-24T00:03:19.716Z,1001.1
2022-09-24T00:04:36.028Z,1001.1
2022-09-24T00:05:52.306Z,1001.1
2022-09-24T00:07:08.610Z,1001.1
2022-09-24T00:08:24.000Z,1001.1
2022-09-24T00:09:41.204Z,1001.1
2022-09-24T00:10:57.502Z,1001.1
2022-09-24T00:12:13.783Z,1001.1
2022-09-24T00:13:30.079Z,1001.1
2022-09-24T00:14:46.375Z,1001.1
2022-09-24T00:16:01.675Z,1001.1
2022-09-24T00:17:17.970Z,1001
2022-09-24T00:18:34.255Z,1001.1
2022-09-24T00:19:50.552Z,1001.1
2022-09-24T00:21:06.862Z,1001.1
2022-09-24T00:22:23.142Z,1001.1
2022-09-24T00:23:39.438Z,1001.1
2022-09-24T00:24:55.739Z,1001.1
2022-09-24T00:26:12.033Z,1001
2022-09-24T00:27:28.331Z,1001
2022-09-24T00:28:44.609Z,1001
2022-09-24T00:30:00.000Z,1001
2022-09-24T00:31:17.207Z,1001
2022-09-24T00:32:32.512Z,1001
2022-09-24T00:33:48.807Z,1001
2022-09-24T00:35:05.096Z,1001
2022-09-24T00:36:21.386Z,1001
2022-09-24T00:37:37.680Z,1000.9
2022-09-24T00:38:53.984Z,1000.9
2022-09-24T00:40:10.284Z,1000.9
2022-09-24T00:41:26.580Z,1000.9
2022-09-24T00:42:42.868Z,1000.9
2022-09-24T00:43:59.154Z,1000.9
2022-09-24T00:45:15.458Z,1001
2022-09-24T00:46:31.736Z,1000.9
2022-09-24T00:47:48.031Z,1000.9
2022-09-24T00:49:03.361Z,1000.9
2022-09-24T00:50:19.645Z,1000.9
2022-09-24T00:51:35.936Z,1000.9
2022-09-24T00:52:52.236Z,1000.9
2022-09-24T00:54:08.518Z,1000.9
2022-09-24T00:55:24.837Z,1000.9
2022-09-24T00:56:41.112Z,1000.9
2022-09-24T00:57:57.416Z,1000.9
2022-09-24T00:59:13.715Z,1000.9
2022-09-24T01:00:29.989Z,1000.8
2022-09-24T01:01:46.286Z,1000.8
2022-09-24T01:03:02.578Z,1000.8
2022-09-24T01:04:18.878Z,1000.9
2022-09-24T01:05:34.191Z,1000.9
2022-09-24T01:06:50.470Z,1000.8
2022-09-24T01:08:06.773Z,1000.8
2022-09-24T01:09:23.072Z,1000.8
2022-09-24T01:10:39.363Z,1000.8
2022-09-24T01:11:55.647Z,1000.8
2022-09-24T01:13:11.946Z,1000.8
2022-09-24T01:14:28.243Z,1000.7
2022-09-24T01:15:44.544Z,1000.8
2022-09-24T01:17:00.837Z,1000.8
2022-09-24T01:18:17.133Z,1000.8
2022-09-24T01:19:33.413Z,1000.8
2022-09-24T01:20:49.729Z,1000.8
2022-09-24T01:22:05.031Z,1000.7
2022-09-24T01:23:21.323Z,1000.7
2022-09-24T01:24:37.602Z,1000.7
2022-09-24T01:25:53.918Z,1000.7
2022-09-24T01:27:10.206Z,1000.7
2022-09-24T01:28:26.486Z,1000.6
2022-09-24T01:29:42.786Z,1000.6
2022-09-24T01:30:59.089Z,1000.7
2022-09-24T01:32:15.364Z,1000.7
2022-09-24T01:33:31.670Z,1000.7
2022-09-24T01:34:47.951Z,1000.7
2022-09-24T01:36:04.261Z,1000.7
2022-09-24T01:37:20.571Z,1000.7
2022-09-24T01:38:35.855Z,1000.7
2022-09-24T01:39:52.166Z,1000.6
2022-09-24T01:41:08.456Z,1000.6
2022-09-24T01:42:24.758Z,1000.6
2022-09-24T01:43:41.024Z,1000.5
2022-09-24T01:44:57.326Z,1000.5
2022-09-24T01:46:13.630Z,1000.5
2022-09-24T01:47:29.925Z,1000.5
2022-09-24T01:48:46.206Z,1000.6
2022-09-24T01:50:02.525Z,1000.5
2022-09-24T01:51:18.788Z,1000.5
2022-09-24T01:52:35.100Z,1000.5
2022-09-24T01:53:51.375Z,1000.5
2022-09-24T01:55:06.701Z,1000.6
2022-09-24T01:56:22.992Z,1000.5
2022-09-24T01:57:39.287Z,1000.5
2022-09-24T01:58:55.584Z,1000.5
2022-09-24T02:00:11.860Z,1000.5
2022-09-24T02:01:28.169Z,1000.5
2022-09-24T02:02:44.469Z,1000.5
2022-09-24T02:04:00.772Z,1000.5
2022-09-24T02:05:17.068Z,1000.5
2022-09-24T02:06:33.340Z,1000.5
2022-09-24T02:07:49.647Z,1000.6
2022-09-24T02:09:05.934Z,1000.5
2022-09-24T02:10:22.213Z,1000.5
2022-09-24T02:11:37.537Z,1000.5
2022-09-24T02:12:53.829Z,1000.5
2022-09-24T02:14:10.112Z,1000.5
2022-09-24T02:15:26.417Z,1000.5
2022-09-24T02:16:42.712Z,1000.5
2022-09-24T02:17:59.024Z,1000.5
2022-09-24T02:19:15.299Z,1000.5
2022-09-24T02:20:31.586Z,1000.5
2022-09-24T02:21:47.887Z,1000.5
2022-09-24T02:23:04.182Z,1000.5
2022-09-24T02:24:20.457Z,1000.5
2022-09-24T02:25:36.759Z,1000.5
2022-09-24T02:26:53.043Z,1000.4
2022-09-24T02:28:08.376Z,1000.4
2022-09-24T02:29:24.654Z,1000.4
2022-09-24T02:30:40.957Z,1000.4
2022-09-24T02:31:57.242Z,1000.4
2022-09-24T02:33:13.559Z,1000.4
2022-09-24T02:34:29.832Z,1000.3
2022-09-24T02:35:46.138Z,1000.3
2022-09-24T02:37:02.412Z,1000.3
2022-09-24T02:38:18.713Z,1000.4
2022-09-24T02:39:34.999Z,1000.4
2022-09-24T02:40:51.311Z,1000.4
2022-09-24T02:42:07.597Z,1000.4
2022-09-24T02:43:23.891Z,1000.3
2022-09-24T02:44:39.199Z,1000.3
2022-09-24T02:45:55.498Z,1000.3
2022-09-24T02:47:11.786Z,1000.2
2022-09-24T02:48:28.081Z,1000.2
2022-09-24T02:49:44.367Z,1000.2
2022-09-24T02:51:00.676Z,1000.2
2022-09-24T02:52:16.968Z,1000.2
2022-09-24T02:53:33.254Z,1000.2
2022-09-24T02:54:49.538Z,1000.2
2022-09-24T02:56:05.843Z,1000.2
2022-09-24T02:57:22.139Z,1000.2
2022-09-24T02:58:38.449Z,1000.2
2022-09-24T02:59:54.715Z,1000.2
2022-09-24T03:01:10.037Z,1000.2
2022-09-24T03:02:26.325Z,1000.2
2022-09-24T03:03:42.621Z,1000.2
2022-09-24T03:04:58.936Z,1000.1
2022-09-24T03:06:15.201Z,1000.1
2022-09-24T03:07:31.510Z,1000.2
2022-09-24T03:08:46.809Z,1000.2
2022-09-24T03:10:03.117Z,1000.2
2022-09-24T03:11:19.412Z,1000.3
2022-09-24T03:12:35.700Z,1000.2
2022-09-24T03:13:51.989Z,1000.2
2022-09-24T03:15:08.290Z,1000.2
2022-09-24T03:16:24.590Z,1000.2
2022-09-24T03:17:40.883Z,1000.2
2022-09-24T03:18:57.174Z,1000.2
2022-09-24T03:20:13.473Z,1000.2
2022-09-24T03:21:29.766Z,1000.2
2022-09-24T03:22:46.072Z,1000.2
2022-09-24T03:24:02.353Z,1000.1
2022-09-24T03:25:17.662Z,1000.2
2022-09-24T03:26:33.956Z,1000.1
2022-09-24T03:27:50.241Z,1000.1
2022-09-24T03:29:06.543Z,1000.1
2022-09-24T03:30:22.827Z,1000.1
2022-09-24T03:31:39.134Z,1000.1
2022-09-24T03:32:55.417Z,1000.1
2022-09-24T03:34:11.707Z,1000.1
2022-09-24T03:35:27.998Z,1000.1
2022-09-24T03:36:44.322Z,1000.1
2022-09-24T03:38:00.605Z,1000.1
2022-09-24T03:39:16.900Z,1000.1
2022-09-24T03:40:33.187Z,1000
2022-09-24T03:41:48.495Z,1000.1
2022-09-24T03:43:04.777Z,1000
2022-09-24T03:44:21.095Z,1000.1
2022-09-24T03:45:37.377Z,1000
2022-09-24T03:46:53.680Z,1000
2022-09-24T03:48:09.963Z,1000
2022-09-24T03:49:26.248Z,1000
2022-09-24T03:50:42.552Z,999.9
2022-09-24T03:51:58.853Z,999.9
2022-09-24T03:53:15.148Z,999.9
2022-09-24T03:54:31.424Z,999.8
2022-09-24T03:55:47.720Z,999.8
2022-09-24T03:57:04.029Z,999.8
2022-09-24T03:58:19.351Z,999.8
2022-09-24T03:59:35.635Z,999.8
2022-09-24T04:00:51.911Z,999.7
2022-09-24T04:02:08.233Z,999.7
2022-09-24T04:03:24.504Z,999.8
2022-09-24T04:04:40.795Z,999.7
2022-09-24T04:05:57.101Z,999.7
2022-09-24T04:07:13.383Z,999.7
2022-09-24T04:08:29.692Z,999.7
2022-09-24T04:09:45.974Z,999.7
2022-09-24T04:11:02.000Z,999.7
2022-09-24T04:12:18.556Z,999.7
2022-09-24T04:13:34.849Z,999.7
2022-09-24T04:14:50.184Z,999.7
2022-09-24T04:16:06.454Z,999.7
2022-09-24T04:17:22.748Z,999.7
2022-09-24T04:18:39.060Z,999.6
2022-09-24T04:19:55.343Z,999.6
2022-09-24T04:21:11.644Z,999.6
2022-09-24T04:22:27.926Z,999.6
2022-09-24T04:23:44.232Z,999.6
2022-09-24T04:25:00.510Z,999.6
2022-09-24T04:26:16.809Z,999.6
2022-09-24T04:27:33.109Z,999.6
2022-09-24T04:28:49.407Z,999.5
2022-09-24T04:30:05.685Z,999.6
2022-09-24T04:31:20.999Z,999.6
2022-09-24T04:32:37.299Z,999.6
2022-09-24T04:33:53.595Z,999.6
2022-09-24T04:35:09.908Z,999.6
2022-09-24T04:36:26.147Z,999.6
2022-09-24T04:37:42.400Z,999.6
2022-09-24T04:38:58.609Z,999.6
2022-09-24T04:40:14.855Z,999.6
2022-09-24T04:41:31.151Z,999.6
2022-09-24T04:42:47.393Z,999.6
2022-09-24T04:44:03.634Z,999.6
2022-09-24T04:45:19.890Z,999.6
2022-09-24T04:47:52.353Z,999.6
2022-09-24T04:49:07.606Z,999.6
2022-09-24T04:50:23.855Z,999.7
2022-09-24T04:51:40.088Z,999.6
2022-09-24T04:52:56.330Z,999.6
2022-09-24T04:54:12.578Z,999.6
2022-09-24T04:55:28.803Z,999.6
2022-09-24T04:56:45.051Z,999.6
2022-09-24T04:58:01.286Z,999.7
2022-09-24T04:59:17.523Z,999.7
2022-09-24T05:00:33.768Z,999.8
2022-09-24T05:01:50.012Z,999.7
2022-09-24T05:03:06.245Z,999.7
2022-09-24T05:04:22.496Z,999.7
2022-09-24T05:05:37.747Z,999.7
2022-09-24T05:06:53.987Z,999.7
2022-09-24T05:08:10.215Z,999.7
2022-09-24T05:09:26.459Z,999.8
2022-09-24T05:10:42.712Z,999.8
2022-09-24T05:11:58.935Z,999.8
2022-09-24T05:13:15.177Z,999.9
2022-09-24T05:14:31.426Z,999.8
2022-09-24T05:15:47.665Z,999.8
2022-09-24T05:17:03.907Z,999.8
2022-09-24T05:18:20.133Z,999.8
2022-09-24T05:19:36.372Z,999.8
2022-09-24T05:20:52.622Z,999.8
2022-09-24T05:22:07.874Z,999.8
2022-09-24T05:23:24.110Z,999.8
2022-09-24T05:24:40.357Z,999.9
2022-09-24T05:25:56.590Z,999.9
2022-09-24T05:27:12.827Z,999.9
2022-09-24T05:28:29.071Z,999.9
2022-09-24T05:29:45.306Z,999.9
2022-09-24T05:31:01.000Z,999.9
2022-09-24T05:32:17.802Z,999.9
2022-09-24T05:33:34.047Z,999.9
2022-09-24T05:34:50.286Z,999.9
2022-09-24T05:36:06.527Z,999.9
2022-09-24T05:37:22.743Z,999.9
2022-09-24T05:38:38.008Z,999.9
2022-09-24T05:39:54.248Z,999.9
2022-09-24T05:41:10.489Z,999.9
2022-09-24T05:42:26.728Z,1000
2022-09-24T05:43:42.966Z,999.9
2022-09-24T05:44:59.199Z,1000
2022-09-24T05:46:15.458Z,1000
2022-09-24T05:47:31.688Z,1000
2022-09-24T05:48:47.926Z,1000
2022-09-24T05:50:04.166Z,1000
2022-09-24T05:51:20.417Z,1000
2022-09-24T05:52:36.642Z,1000.1
2022-09-24T05:53:52.891Z,1000.1
2022-09-24T05:55:08.155Z,1000.1
2022-09-24T05:56:24.378Z,1000.1
2022-09-24T05:57:40.636Z,1000.1
2022-09-24T05:58:56.876Z,1000.1
2022-09-24T06:00:13.119Z,1000.1
2022-09-24T06:01:29.354Z,1000.1
2022-09-24T06:02:45.590Z,1000.2
2022-09-24T06:04:01.830Z,1000.2
2022-09-24T06:05:18.074Z,1000.1
2022-09-24T06:06:34.304Z,1000.2
2022-09-24T06:07:50.544Z,1000.2
2022-09-24T06:09:06.785Z,1000.1
2022-09-24T06:10:23.023Z,1000.1
2022-09-24T06:11:38.285Z,1000.1
2022-09-24T06:12:54.534Z,1000.1
2022-09-24T06:14:10.775Z,1000.1
2022-09-24T06:15:26.990Z,1000
2022-09-24T06:16:43.229Z,1000
2022-09-24T06:17:59.491Z,1000
2022-09-24T06:19:15.732Z,1000
2022-09-24T06:20:31.953Z,1000
2022-09-24T06:21:48.195Z,1000
2022-09-24T06:23:04.433Z,1000.1
2022-09-24T06:24:20.689Z,1000
2022-09-24T06:25:36.931Z,1000
2022-09-24T06:26:53.157Z,1000
2022-09-24T06:28:08.411Z,1000
2022-09-24T06:29:24.642Z,999.9
2022-09-24T06:30:40.897Z,999.9
2022-09-24T06:31:57.124Z,999.9
2022-09-24T06:33:13.367Z,999.9
2022-09-24T06:34:29.621Z,999.8
2022-09-24T06:35:45.846Z,999.9
2022-09-24T06:37:02.091Z,999.8
2022-09-24T06:38:18.341Z,999.8
2022-09-24T06:39:34.565Z,999.8
2022-09-24T06:40:50.818Z,999.8
2022-09-24T06:42:07.051Z,999.8
2022-09-24T06:43:23.300Z,999.8
2022-09-24T06:44:38.533Z,999.7
2022-09-24T06:45:54.777Z,999.8
2022-09-24T06:47:11.015Z,999.7
2022-09-24T06:48:27.272Z,999.7
2022-09-24T06:49:43.507Z,999.8
2022-09-24T06:50:59.736Z,999.8
2022-09-24T06:52:15.976Z,999.8
2022-09-24T06:53:32.222Z,999.8
2022-09-24T06:54:48.451Z,999.8
2022-09-24T06:56:04.703Z,999.8
2022-09-24T06:57:20.931Z,999.8
2022-09-24T06:58:37.187Z,999.8
2022-09-24T06:59:53.413Z,999.8
2022-09-24T07:01:08.681Z,999.8
2022-09-24T07:02:24.909Z,999.8
2022-09-24T07:03:41.159Z,999.8
2022-09-24T07:04:57.398Z,999.9
2022-09-24T07:06:13.630Z,999.9
2022-09-24T07:07:29.862Z,999.9
2022-09-24T07:08:46.107Z,999.8
2022-09-24T07:10:02.346Z,999.9
2022-09-24T07:11:18.578Z,999.9
2022-09-24T07:12:34.815Z,999.9
2022-09-24T07:13:51.056Z,999.9
2022-09-24T07:15:07.300Z,999.9
2022-09-24T07:16:23.551Z,999.9
2022-09-24T07:17:38.807Z,999.9
2022-09-24T07:18:55.031Z,1000
2022-09-24T07:20:11.281Z,1000
2022-09-24T07:21:27.522Z,999.9
2022-09-24T07:22:43.745Z,999.9
2022-09-24T07:23:59.005Z,999.9
2022-09-24T07:25:15.245Z,1000
2022-09-24T07:26:31.477Z,1000
2022-09-24T07:27:47.724Z,1000
2022-09-24T07:29:03.967Z,1000
2022-09-24T07:30:20.206Z,1000
2022-09-24T07:31:36.460Z,1000
2022-09-24T07:32:52.695Z,1000
2022-09-24T07:34:08.922Z,1000
2022-09-24T07:35:25.158Z,1000
2022-09-24T07:36:41.398Z,1000
2022-09-24T07:37:57.637Z,1000.1
2022-09-24T07:39:13.879Z,1000.1
2022-09-24T07:40:29.134Z,1000.1
2022-09-24T07:41:45.368Z,1000.1
2022-09-24T07:43:01.609Z,1000.1
2022-09-24T07:44:17.845Z,1000.1
2022-09-24T07:45:34.097Z,1000.1
2022-09-24T07:46:50.325Z,1000.1
2022-09-24T07:48:06.000Z,1000.1
2022-09-24T07:49:22.802Z,1000.1
2022-09-24T07:50:39.048Z,1000.1
2022-09-24T07:51:55.285Z,1000.1
2022-09-24T07:53:11.523Z,1000.1
2022-09-24T07:54:27.766Z,1000.1
2022-09-24T07:55:44.012Z,1000.1
2022-09-24T07:56:59.248Z,1000.1
2022-09-24T07:58:15.487Z,1000.2
2022-09-24T07:59:31.729Z,1000.2
2022-09-24T08:00:47.966Z,1000.2
2022-09-24T08:02:04.205Z,1000.2
2022-09-24T08:03:20.448Z,1000.1
2022-09-24T08:04:36.683Z,1000.1
2022-09-24T08:05:52.927Z,1000.1
2022-09-24T08:07:09.163Z,1000.1
2022-09-24T08:08:25.415Z,1000.1
2022-09-24T08:09:41.651Z,1000
2022-09-24T08:10:57.885Z,1000
2022-09-24T08:12:14.125Z,1000
2022-09-24T08:13:29.362Z,1000
2022-09-24T08:14:45.621Z,1000
2022-09-24T08:16:01.842Z,1000.1
2022-09-24T08:17:18.088Z,1000
2022-09-24T08:18:34.343Z,1000.1
2022-09-24T08:19:50.582Z,1000
2022-09-24T08:21:06.807Z,1000
2022-09-24T08:22:23.043Z,1000
2022-09-24T08:23:39.278Z,1000
2022-09-24T08:24:55.526Z,1000
2022-09-24T08:26:11.762Z,999.9
2022-09-24T08:27:28.013Z,1000
2022-09-24T08:28:44.227Z,1000
2022-09-24T08:29:59.487Z,1000
2022-09-24T08:31:15.734Z,1000
2022-09-24T08:32:31.970Z,1000
2022-09-24T08:33:48.214Z,1000.1
2022-09-24T08:35:04.462Z,1000.1
2022-09-24T08:36:20.690Z,1000.1
2022-09-24T08:37:36.931Z,1000.1
2022-09-24T08:38:53.160Z,1000.2
2022-09-24T08:40:09.411Z,1000.2
2022-09-24T08:41:25.638Z,1000.2
2022-09-24T08:42:41.871Z,1000.2
2022-09-24T08:43:58.125Z,1000.1
2022-09-24T08:45:14.358Z,1000.1
2022-09-24T08:46:29.623Z,1000.2
2022-09-24T08:47:45.849Z,1000.1
2022-09-24T08:49:02.085Z,1000.2
2022-09-24T08:50:18.331Z,1000.2
2022-09-24T08:51:34.000Z,1000.2
2022-09-24T08:52:50.815Z,1000.2
2022-09-24T08:54:07.029Z,1000.3
2022-09-24T08:55:23.280Z,1000.2
2022-09-24T08:56:39.511Z,1000.2
2022-09-24T08:57:55.753Z,1000.2
2022-09-24T08:59:11.993Z,1000.2
2022-09-24T09:00:28.228Z,1000.2
2022-09-24T09:01:44.476Z,1000.2
2022-09-24T09:02:59.724Z,1000.2
2022-09-24T09:04:15.965Z,1000.2
2022-09-24T09:05:32.208Z,1000.2
2022-09-24T09:06:48.435Z,1000.1
2022-09-24T09:08:04.683Z,1000.2
2022-09-24T09:09:20.926Z,1000.1
2022-09-24T09:10:37.162Z,1000.1
2022-09-24T09:11:53.400Z,1000.2
2022-09-24T09:13:09.631Z,1000.2
2022-09-24T09:14:25.873Z,1000.1
2022-09-24T09:15:42.109Z,1000.1
2022-09-24T09:16:58.337Z,1000.1
2022-09-24T09:18:14.601Z,1000.1
2022-09-24T09:19:29.844Z,1000.1
2022-09-24T09:20:46.093Z,1000
2022-09-24T09:22:02.325Z,1000.1
2022-09-24T09:23:18.551Z,1000
2022-09-24T09:24:34.792Z,1000.1
2022-09-24T09:25:51.041Z,1000.1
2022-09-24T09:27:07.269Z,1000
2022-09-24T09:28:23.521Z,1000.1
2022-09-24T09:29:39.755Z,1000
2022-09-24T09:30:55.999Z,1000
2022-09-24T09:32:12.221Z,1000
2022-09-24T09:33:28.460Z,1000
2022-09-24T09:34:44.702Z,1000
2022-09-24T09:35:59.953Z,1000
2022-09-24T09:37:16.204Z,1000
2022-09-24T09:38:32.427Z,1000
2022-09-24T09:39:48.672Z,1000
2022-09-24T09:41:04.911Z,1000
2022-09-24T09:42:21.151Z,999.9
2022-09-24T09:43:37.391Z,999.9
2022-09-24T09:44:53.627Z,999.9
2022-09-24T09:46:09.874Z,999.9
2022-09-24T09:47:26.110Z,999.9
2022-09-24T09:48:42.341Z,999.9
2022-09-24T09:49:58.585Z,999.9
2022-09-24T09:51:14.830Z,999.9
2022-09-24T09:52:30.082Z,1000
2022-09-24T09:53:46.314Z,999.9
2022-09-24T09:55:02.556Z,999.9
2022-09-24T09:56:18.792Z,999.9
2022-09-24T09:57:35.026Z,1000
2022-09-24T09:58:51.280Z,1000
2022-09-24T10:00:07.501Z,999.9
2022-09-24T10:01:23.750Z,999.9
2022-09-24T10:02:39.994Z,999.9
2022-09-24T10:03:56.233Z,999.9
2022-09-24T10:05:12.470Z,999.9
2022-09-24T10:06:28.714Z,999.9
2022-09-24T10:07:44.944Z,999.9
2022-09-24T10:09:00.203Z,999.9
2022-09-24T10:10:16.444Z,999.8
2022-09-24T10:11:32.688Z,999.8
2022-09-24T10:12:48.929Z,999.8
2022-09-24T10:14:05.157Z,999.8
2022-09-24T10:15:21.394Z,999.8
2022-09-24T10:16:37.641Z,999.8
2022-09-24T10:17:53.885Z,999.8
2022-09-24T10:19:10.126Z,999.8
2022-09-24T10:20:26.355Z,999.8
2022-09-24T10:21:42.596Z,999.8
2022-09-24T10:22:58.831Z,999.8
2022-09-24T10:24:15.079Z,999.8
2022-09-24T10:25:30.330Z,999.8
2022-09-24T10:26:46.574Z,999.8
2022-09-24T10:28:02.810Z,999.8
2022-09-24T10:29:19.044Z,999.8
2022-09-24T10:30:35.275Z,999.8
2022-09-24T10:31:51.533Z,999.8
2022-09-24T10:33:07.758Z,999.8
2022-09-24T10:34:23.995Z,999.8
2022-09-24T10:35:40.240Z,999.8
2022-09-24T10:36:56.475Z,999.8
2022-09-24T10:38:12.715Z,999.8
2022-09-24T10:39:28.965Z,999.7
2022-09-24T10:40:45.185Z,999.7
2022-09-24T10:42:00.457Z,999.8
2022-09-24T10:43:16.683Z,999.8
2022-09-24T10:44:32.918Z,999.8
2022-09-24T10:45:49.164Z,999.8
2022-09-24T10:47:05.410Z,999.8
2022-09-24T10:48:21.647Z,999.7
2022-09-24T10:49:37.871Z,999.7
2022-09-24T10:50:54.119Z,999.7
2022-09-24T10:52:10.353Z,999.7
2022-09-24T10:53:26.593Z,999.7
2022-09-24T10:54:42.822Z,999.7
2022-09-24T10:55:59.056Z,999.7
2022-09-24T10:57:15.315Z,999.7
2022-09-24T10:58:30.568Z,999.7
2022-09-24T10:59:46.793Z,999.7
2022-09-24T11:01:03.027Z,999.7
2022-09-24T11:02:19.274Z,999.6
2022-09-24T11:03:35.522Z,999.7
2022-09-24T11:04:51.761Z,999.7
2022-09-24T11:06:07.997Z,999.6
2022-09-24T11:07:24.225Z,999.6
2022-09-24T11:08:40.468Z,999.6
2022-09-24T11:09:56.710Z,999.6
2022-09-24T11:11:12.952Z,999.6
2022-09-24T11:12:29.185Z,999.6
2022-09-24T11:13:45.413Z,999.6
2022-09-24T11:15:00.669Z,999.6
2022-09-24T11:16:16.922Z,999.6
2022-09-24T11:17:33.160Z,999.6
2022-09-24T11:18:49.388Z,999.6
2022-09-24T11:20:05.633Z,999.6
2022-09-24T11:21:21.859Z,999.6
2022-09-24T11:22:38.116Z,999.5
2022-09-24T11:23:54.341Z,999.5
2022-09-24T11:25:10.587Z,999.5
2022-09-24T11:26:26.827Z,999.5
2022-09-24T11:27:43.054Z,999.5
2022-09-24T11:28:59.298Z,999.5
2022-09-24T11:30:15.534Z,999.4
2022-09-24T11:31:30.797Z,999.5
2022-09-24T11:32:47.027Z,999.4
2022-09-24T11:34:03.254Z,999.5
2022-09-24T11:35:19.503Z,999.5
2022-09-24T11:36:35.736Z,999.5
2022-09-24T11:37:51.988Z,999.4
2022-09-24T11:39:07.235Z,999.4
2022-09-24T11:40:23.477Z,999.4
2022-09-24T11:41:39.712Z,999.4
2022-09-24T11:42:55.959Z,999.4
2022-09-24T11:44:12.200Z,999.4
2022-09-24T11:45:28.440Z,999.4
2022-09-24T11:46:44.660Z,999.3
2022-09-24T11:48:00.905Z,999.3
2022-09-24T11:49:17.144Z,999.3
2022-09-24T11:50:33.382Z,999.2
2022-09-24T11:51:49.611Z,999.3
2022-09-24T11:53:05.866Z,999.3
2022-09-24T11:54:22.097Z,999.4
2022-09-24T11:55:37.347Z,999.4
2022-09-24T11:56:53.595Z,999.3
2022-09-24T11:58:09.817Z,999.3
2022-09-24T11:59:26.057Z,999.3
2022-09-24T12:00:42.311Z,999.2
2022-09-24T12:01:58.531Z,999.3
2022-09-24T12:03:14.774Z,999.2
2022-09-24T12:04:31.010Z,999.2
2022-09-24T12:05:47.253Z,999.2
2022-09-24T12:07:03.503Z,999.2
2022-09-24T12:08:19.741Z,999.1
2022-09-24T12:09:35.976Z,999.2
2022-09-24T12:10:52.210Z,999.2
2022-09-24T12:12:07.472Z,999.2
2022-09-24T12:13:23.703Z,999.2
2022-09-24T12:14:39.937Z,999.1
2022-09-24T12:15:56.166Z,999.1
2022-09-24T12:17:12.407Z,999.2
2022-09-24T12:18:28.664Z,999.1
2022-09-24T12:19:44.886Z,999.1
2022-09-24T12:21:01.128Z,999.1
2022-09-24T12:22:17.379Z,999.1
2022-09-24T12:23:33.609Z,999.1
2022-09-24T12:24:49.844Z,999.1
2022-09-24T12:26:06.095Z,999.1
2022-09-24T12:27:22.317Z,999.1
2022-09-24T12:28:37.581Z,999.1
2022-09-24T12:29:53.807Z,999.1
2022-09-24T12:31:10.045Z,999.1
2022-09-24T12:32:26.281Z,999.1
2022-09-24T12:33:42.538Z,999.1
2022-09-24T12:34:58.758Z,999
2022-09-24T12:36:15.000Z,999.1
2022-09-24T12:37:31.232Z,999.1
2022-09-24T12:38:47.477Z,999
2022-09-24T12:40:03.714Z,999.1
2022-09-24T12:41:19.951Z,999.1
2022-09-24T12:42:36.198Z,999.1
2022-09-24T12:43:52.435Z,999.1
2022-09-24T12:45:07.687Z,999.1
2022-09-24T12:46:23.933Z,999.1
2022-09-24T12:47:40.173Z,999
2022-09-24T12:48:56.397Z,999
2022-09-24T12:50:12.642Z,999.1
2022-09-24T12:51:28.874Z,999
2022-09-24T12:52:45.109Z,999
2022-09-24T12:54:01.362Z,998.9
2022-09-24T12:55:17.592Z,998.9
2022-09-24T12:56:33.829Z,999
2022-09-24T12:57:50.078Z,999
2022-09-24T12:59:06.312Z,999
2022-09-24T13:00:22.553Z,999
2022-09-24T13:01:37.808Z,999
2022-09-24T13:02:54.046Z,999
2022-09-24T13:04:10.288Z,998.9
2022-09-24T13:05:26.516Z,998.9
2022-09-24T13:06:42.762Z,998.9
2022-09-24T13:07:59.004Z,998.9
2022-09-24T13:09:15.250Z,998.9
2022-09-24T13:10:31.472Z,998.9
2022-09-24T13:11:47.725Z,998.8
2022-09-24T13:13:03.954Z,998.8
2022-09-24T13:14:20.195Z,998.8
2022-09-24T13:15:36.440Z,998.8
2022-09-24T13:16:52.677Z,998.8
2022-09-24T13:18:07.933Z,998.9
2022-09-24T13:19:24.164Z,998.9
2022-09-24T13:20:40.409Z,998.9
2022-09-24T13:21:56.650Z,998.8
2022-09-24T13:23:12.888Z,998.8
2022-09-24T13:24:29.116Z,998.8
2022-09-24T13:25:45.358Z,998.8
2022-09-24T13:27:01.593Z,998.8
2022-09-24T13:28:17.835Z,998.8
2022-09-24T13:29:34.067Z,998.7
2022-09-24T13:30:50.308Z,998.7
2022-09-24T13:32:06.553Z,998.7
2022-09-24T13:33:22.789Z,998.7
2022-09-24T13:34:38.053Z,998.7
2022-09-24T13:35:54.280Z,998.7
2022-09-24T13:37:10.527Z,998.7
2022-09-24T13:38:26.751Z,998.7
2022-09-24T13:39:43.002Z,998.7
2022-09-24T13:40:59.232Z,998.7
2022-09-24T13:42:15.471Z,998.7
2022-09-24T13:43:31.704Z,998.8
2022-09-24T13:44:47.946Z,998.7
2022-09-24T13:46:04.187Z,998.7
2022-09-24T13:47:20.422Z,998.8
2022-09-24T13:48:36.654Z,998.8
2022-09-24T13:49:52.895Z,998.8
2022-09-24T13:51:08.146Z,998.7
2022-09-24T13:52:24.401Z,998.8
2022-09-24T13:53:40.626Z,998.8
2022-09-24T13:54:56.866Z,998.8
2022-09-24T13:56:13.103Z,998.8
2022-09-24T13:57:29.337Z,998.8
2022-09-24T13:58:45.573Z,998.8
2022-09-24T14:00:01.811Z,998.8
2022-09-24T14:01:18.053Z,998.7
2022-09-24T14:02:34.289Z,998.7
2022-09-24T14:03:50.530Z,998.7
2022-09-24T14:05:06.772Z,998.7
2022-09-24T14:06:23.005Z,998.6
2022-09-24T14:07:38.277Z,998.6
2022-09-24T14:08:54.509Z,998.6
2022-09-24T14:10:10.733Z,998.6
2022-09-24T14:11:26.985Z,998.6
2022-09-24T14:12:43.223Z,998.6
2022-09-24T14:13:59.448Z,998.5
2022-09-24T14:15:15.694Z,998.6
2022-09-24T14:16:31.926Z,998.6
2022-09-24T14:17:48.177Z,998.5
2022-09-24T14:19:04.402Z,998.6
2022-09-24T14:20:20.658Z,998.6
2022-09-24T14:21:36.880Z,998.6
2022-09-24T14:22:53.126Z,998.5
2022-09-24T14:24:08.387Z,998.6
2022-09-24T14:25:24.627Z,998.6
2022-09-24T14:26:40.850Z,998.6
2022-09-24T14:27:57.106Z,998.7
2022-09-24T14:29:13.331Z,998.6
2022-09-24T14:30:29.578Z,998.6
2022-09-24T14:31:45.804Z,998.6
2022-09-24T14:33:02.060Z,998.6
2022-09-24T14:34:18.295Z,998.6
2022-09-24T14:35:34.527Z,998.6
2022-09-24T14:36:50.763Z,998.6
2022-09-24T14:38:07.011Z,998.6
2022-09-24T14:39:23.246Z,998.6
2022-09-24T14:40:38.498Z,998.6
2022-09-24T14:41:54.739Z,998.6
2022-09-24T14:43:10.975Z,998.6
2022-09-24T14:44:27.213Z,998.6
2022-09-24T14:45:43.452Z,998.5
2022-09-24T14:46:59.696Z,998.6
2022-09-24T14:48:15.938Z,998.5
2022-09-24T14:49:32.185Z,998.5
2022-09-24T14:50:48.402Z,998.5
2022-09-24T14:52:04.645Z,998.5
2022-09-24T14:53:20.898Z,998.5
2022-09-24T14:54:37.126Z,998.5
2022-09-24T14:55:53.375Z,998.6
2022-09-24T14:57:09.599Z,998.5
2022-09-24T14:58:24.851Z,998.6
2022-09-24T14:59:41.102Z,998.6
2022-09-24T15:00:57.327Z,998.6
2022-09-24T15:02:13.566Z,998.5
2022-09-24T15:03:29.823Z,998.5
2022-09-24T15:04:46.050Z,998.6
2022-09-24T15:06:02.300Z,998.5
2022-09-24T15:07:18.525Z,998.6
2022-09-24T15:08:34.767Z,998.6
2022-09-24T15:09:50.998Z,998.6
2022-09-24T15:11:07.248Z,998.6
2022-09-24T15:12:23.480Z,998.6
2022-09-24T15:13:39.722Z,998.6
2022-09-24T15:14:54.969Z,998.6
2022-09-24T15:16:11.221Z,998.6
2022-09-24T15:17:27.464Z,998.6
2022-09-24T15:18:43.689Z,998.6
2022-09-24T15:19:59.937Z,998.6
2022-09-24T15:21:16.175Z,998.5
2022-09-24T15:22:32.400Z,998.5
2022-09-24T15:23:48.648Z,998.5
2022-09-24T15:25:04.899Z,998.5
2022-09-24T15:26:21.130Z,998.5
2022-09-24T15:27:37.363Z,998.6
2022-09-24T15:28:53.609Z,998.6
2022-09-24T15:30:09.839Z,998.6
2022-09-24T15:31:25.099Z,998.6
2022-09-24T15:32:41.341Z,998.6
2022-09-24T15:33:57.569Z,998.5
2022-09-24T15:35:13.813Z,998.6
2022-09-24T15:36:30.044Z,998.6
2022-09-24T15:37:46.281Z,998.6
2022-09-24T15:39:02.526Z,998.6
2022-09-24T15:40:18.763Z,998.6
2022-09-24T15:41:35.001Z,998.6
2022-09-24T15:42:51.234Z,998.6
2022-09-24T15:44:07.492Z,998.5
2022-09-24T15:45:23.723Z,998.6
2022-09-24T15:46:39.950Z,998.5
2022-09-24T15:47:55.208Z,998.5
2022-09-24T15:49:11.443Z,998.5
2022-09-24T15:50:27.693Z,998.5
2022-09-24T15:51:43.937Z,998.5
2022-09-24T15:53:00.172Z,998.5
2022-09-24T15:54:15.426Z,998.5
2022-09-24T15:55:31.669Z,998.5
2022-09-24T15:56:47.906Z,998.5
2022-09-24T15:58:04.148Z,998.6
2022-09-24T15:59:20.380Z,998.5
2022-09-24T16:00:36.620Z,998.5
2022-09-24T16:01:52.854Z,998.5
2022-09-24T16:03:09.081Z,998.5
2022-09-24T16:04:25.338Z,998.5
2022-09-24T16:05:41.565Z,998.5
2022-09-24T16:06:57.804Z,998.6
2022-09-24T16:08:14.036Z,998.6
2022-09-24T16:09:30.288Z,998.6
2022-09-24T16:10:45.545Z,998.6
2022-09-24T16:12:01.772Z,998.6
2022-09-24T16:13:18.025Z,998.6
2022-09-24T16:14:34.244Z,998.6
2022-09-24T16:15:50.482Z,998.6
2022-09-24T16:17:06.722Z,998.6